sensor_id;sensor_type;location;lat;lon;timestamp;P1;durP1;ratioP1;P2;durP2;ratioP2
39890;SDS011;25564;53.312;9.790;2023-04-06T00:01:56;7.67;;;4.57;;
39890;SDS011;25564;53.312;9.790;2023-04-06T00:04:28;9.87;;;3.87;;
39890;SDS011;25564;53.312;9.790;2023-04-06T00:06:59;9.07;;;4.30;;
39890;SDS011;25564;53.312;9.790;2023-04-06T00:09:31;9.73;;;4.20;;
39890;SDS011;25564;53.312;9.790;2023-04-06T00:12:02;8.27;;;4.30;;
39890;SDS011;25564;53.312;9.790;2023-04-06T00:14:35;8.43;;;4.87;;
39890;SDS011;25564;53.312;9.790;2023-04-06T00:17:06;11.20;;;4.37;;
39890;SDS011;25564;53.312;9.790;2023-04-06T00:19:38;7.60;;;4.40;;
39890;SDS011;25564;53.312;9.790;2023-04-06T00:22:09;8.43;;;4.30;;
39890;SDS011;25564;53.312;9.790;2023-04-06T00:24:41;7.47;;;4.60;;
39890;SDS011;25564;53.312;9.790;2023-04-06T00:27:13;9.00;;;4.17;;
39890;SDS011;25564;53.312;9.790;2023-04-06T00:29:44;9.10;;;3.90;;
39890;SDS011;25564;53.312;9.790;2023-04-06T00:32:16;9.87;;;5.03;;
39890;SDS011;25564;53.312;9.790;2023-04-06T00:34:48;11.20;;;4.67;;
39890;SDS011;25564;53.312;9.790;2023-04-06T00:37:19;9.70;;;4.43;;
39890;SDS011;25564;53.312;9.790;2023-04-06T00:39:51;11.03;;;4.13;;
39890;SDS011;25564;53.312;9.790;2023-04-06T00:42:23;7.70;;;4.93;;
39890;SDS011;25564;53.312;9.790;2023-04-06T00:44:59;9.70;;;4.47;;
39890;SDS011;25564;53.312;9.790;2023-04-06T00:47:31;8.70;;;4.20;;
39890;SDS011;25564;53.312;9.790;2023-04-06T00:50:02;10.20;;;4.60;;
39890;SDS011;25564;53.312;9.790;2023-04-06T00:52:34;8.07;;;3.97;;
39890;SDS011;25564;53.312;9.790;2023-04-06T00:55:07;5.87;;;4.33;;
39890;SDS011;25564;53.312;9.790;2023-04-06T00:57:38;8.10;;;3.90;;
39890;SDS011;25564;53.312;9.790;2023-04-06T01:00:10;6.83;;;4.10;;
39890;SDS011;25564;53.312;9.790;2023-04-06T01:02:43;11.97;;;3.90;;
39890;SDS011;25564;53.312;9.790;2023-04-06T01:05:16;6.77;;;3.97;;
39890;SDS011;25564;53.312;9.790;2023-04-06T01:07:47;8.10;;;4.10;;
39890;SDS011;25564;53.312;9.790;2023-04-06T01:10:23;8.57;;;3.77;;
39890;SDS011;25564;53.312;9.790;2023-04-06T01:12:55;5.97;;;3.95;;
39890;SDS011;25564;53.312;9.790;2023-04-06T01:15:27;8.03;;;3.97;;
39890;SDS011;25564;53.312;9.790;2023-04-06T01:18:00;7.87;;;4.03;;
39890;SDS011;25564;53.312;9.790;2023-04-06T01:20:32;10.00;;;3.93;;
39890;SDS011;25564;53.312;9.790;2023-04-06T01:23:04;7.90;;;4.23;;
39890;SDS011;25564;53.312;9.790;2023-04-06T01:25:35;7.30;;;3.93;;
39890;SDS011;25564;53.312;9.790;2023-04-06T01:28:08;9.83;;;5.37;;
39890;SDS011;25564;53.312;9.790;2023-04-06T01:30:39;7.70;;;3.80;;
39890;SDS011;25564;53.312;9.790;2023-04-06T01:33:11;6.93;;;4.13;;
39890;SDS011;25564;53.312;9.790;2023-04-06T01:35:42;7.43;;;3.83;;
39890;SDS011;25564;53.312;9.790;2023-04-06T01:38:14;7.03;;;3.90;;
39890;SDS011;25564;53.312;9.790;2023-04-06T01:40:46;7.20;;;3.90;;
39890;SDS011;25564;53.312;9.790;2023-04-06T01:43:17;11.23;;;3.83;;
39890;SDS011;25564;53.312;9.790;2023-04-06T01:45:49;7.27;;;3.70;;
39890;SDS011;25564;53.312;9.790;2023-04-06T01:48:20;6.87;;;3.97;;
39890;SDS011;25564;53.312;9.790;2023-04-06T01:50:52;7.97;;;4.13;;
39890;SDS011;25564;53.312;9.790;2023-04-06T01:53:24;4.80;;;3.57;;
39890;SDS011;25564;53.312;9.790;2023-04-06T01:55:55;7.67;;;3.63;;
39890;SDS011;25564;53.312;9.790;2023-04-06T01:58:27;7.50;;;4.10;;
39890;SDS011;25564;53.312;9.790;2023-04-06T02:00:58;6.80;;;3.67;;
39890;SDS011;25564;53.312;9.790;2023-04-06T02:03:30;7.70;;;4.50;;
39890;SDS011;25564;53.312;9.790;2023-04-06T02:06:02;9.50;;;4.20;;
39890;SDS011;25564;53.312;9.790;2023-04-06T02:08:34;7.87;;;4.07;;
39890;SDS011;25564;53.312;9.790;2023-04-06T02:11:06;8.43;;;3.83;;
39890;SDS011;25564;53.312;9.790;2023-04-06T02:13:37;7.23;;;4.00;;
39890;SDS011;25564;53.312;9.790;2023-04-06T02:16:09;6.47;;;4.13;;
39890;SDS011;25564;53.312;9.790;2023-04-06T02:18:40;8.73;;;4.00;;
39890;SDS011;25564;53.312;9.790;2023-04-06T02:21:12;6.10;;;4.00;;
39890;SDS011;25564;53.312;9.790;2023-04-06T02:23:44;6.73;;;3.73;;
39890;SDS011;25564;53.312;9.790;2023-04-06T02:26:15;6.90;;;3.93;;
39890;SDS011;25564;53.312;9.790;2023-04-06T02:28:46;7.30;;;4.10;;
39890;SDS011;25564;53.312;9.790;2023-04-06T02:31:18;10.57;;;4.33;;
39890;SDS011;25564;53.312;9.790;2023-04-06T02:33:50;7.00;;;4.03;;
39890;SDS011;25564;53.312;9.790;2023-04-06T02:36:21;6.73;;;4.20;;
39890;SDS011;25564;53.312;9.790;2023-04-06T02:38:53;7.73;;;4.27;;
39890;SDS011;25564;53.312;9.790;2023-04-06T02:41:24;8.63;;;4.20;;
39890;SDS011;25564;53.312;9.790;2023-04-06T02:43:56;9.63;;;3.80;;
39890;SDS011;25564;53.312;9.790;2023-04-06T02:46:27;9.53;;;3.97;;
39890;SDS011;25564;53.312;9.790;2023-04-06T02:48:59;7.83;;;3.90;;
39890;SDS011;25564;53.312;9.790;2023-04-06T02:51:31;9.23;;;4.40;;
39890;SDS011;25564;53.312;9.790;2023-04-06T02:54:04;7.93;;;3.70;;
39890;SDS011;25564;53.312;9.790;2023-04-06T02:56:36;7.67;;;4.17;;
39890;SDS011;25564;53.312;9.790;2023-04-06T02:59:07;6.90;;;4.47;;
39890;SDS011;25564;53.312;9.790;2023-04-06T03:01:39;6.90;;;3.97;;
39890;SDS011;25564;53.312;9.790;2023-04-06T03:04:11;12.30;;;4.53;;
39890;SDS011;25564;53.312;9.790;2023-04-06T03:06:43;10.50;;;4.30;;
39890;SDS011;25564;53.312;9.790;2023-04-06T03:09:14;6.57;;;4.00;;
39890;SDS011;25564;53.312;9.790;2023-04-06T03:11:46;8.47;;;4.37;;
39890;SDS011;25564;53.312;9.790;2023-04-06T03:14:17;6.30;;;4.13;;
39890;SDS011;25564;53.312;9.790;2023-04-06T03:16:52;9.20;;;4.50;;
39890;SDS011;25564;53.312;9.790;2023-04-06T03:19:24;9.47;;;4.30;;
39890;SDS011;25564;53.312;9.790;2023-04-06T03:21:55;7.97;;;4.27;;
39890;SDS011;25564;53.312;9.790;2023-04-06T03:24:27;7.53;;;4.93;;
39890;SDS011;25564;53.312;9.790;2023-04-06T03:26:58;11.57;;;5.60;;
39890;SDS011;25564;53.312;9.790;2023-04-06T03:29:31;8.27;;;4.40;;
39890;SDS011;25564;53.312;9.790;2023-04-06T03:32:02;6.03;;;3.87;;
39890;SDS011;25564;53.312;9.790;2023-04-06T03:34:34;7.63;;;3.97;;
39890;SDS011;25564;53.312;9.790;2023-04-06T03:37:05;7.30;;;4.47;;
39890;SDS011;25564;53.312;9.790;2023-04-06T03:39:40;8.90;;;4.90;;
39890;SDS011;25564;53.312;9.790;2023-04-06T03:42:12;8.57;;;4.57;;
39890;SDS011;25564;53.312;9.790;2023-04-06T03:44:44;6.60;;;3.90;;
39890;SDS011;25564;53.312;9.790;2023-04-06T03:47:15;8.93;;;4.67;;
39890;SDS011;25564;53.312;9.790;2023-04-06T03:49:47;8.23;;;5.47;;
39890;SDS011;25564;53.312;9.790;2023-04-06T03:52:18;11.30;;;6.03;;
39890;SDS011;25564;53.312;9.790;2023-04-06T03:54:49;10.00;;;5.93;;
39890;SDS011;25564;53.312;9.790;2023-04-06T03:57:21;11.60;;;6.07;;
39890;SDS011;25564;53.312;9.790;2023-04-06T03:59:53;10.07;;;6.23;;
39890;SDS011;25564;53.312;9.790;2023-04-06T04:02:24;10.37;;;6.37;;
39890;SDS011;25564;53.312;9.790;2023-04-06T04:04:56;13.13;;;7.10;;
39890;SDS011;25564;53.312;9.790;2023-04-06T04:07:27;12.27;;;5.77;;
39890;SDS011;25564;53.312;9.790;2023-04-06T04:09:59;13.10;;;6.53;;
39890;SDS011;25564;53.312;9.790;2023-04-06T04:12:30;10.47;;;6.60;;
39890;SDS011;25564;53.312;9.790;2023-04-06T04:15:02;11.73;;;6.23;;
39890;SDS011;25564;53.312;9.790;2023-04-06T04:17:34;11.90;;;7.10;;
39890;SDS011;25564;53.312;9.790;2023-04-06T04:20:06;13.27;;;7.43;;
39890;SDS011;25564;53.312;9.790;2023-04-06T04:22:38;14.63;;;6.27;;
39890;SDS011;25564;53.312;9.790;2023-04-06T04:25:10;12.07;;;5.70;;
39890;SDS011;25564;53.312;9.790;2023-04-06T04:27:42;8.70;;;5.37;;
39890;SDS011;25564;53.312;9.790;2023-04-06T04:30:13;9.13;;;5.97;;
39890;SDS011;25564;53.312;9.790;2023-04-06T04:32:45;10.47;;;6.43;;
39890;SDS011;25564;53.312;9.790;2023-04-06T04:35:16;11.13;;;6.23;;
39890;SDS011;25564;53.312;9.790;2023-04-06T04:37:48;8.90;;;5.97;;
39890;SDS011;25564;53.312;9.790;2023-04-06T04:40:19;9.33;;;6.00;;
39890;SDS011;25564;53.312;9.790;2023-04-06T04:42:51;12.90;;;6.40;;
39890;SDS011;25564;53.312;9.790;2023-04-06T04:45:23;10.60;;;5.93;;
39890;SDS011;25564;53.312;9.790;2023-04-06T04:47:54;10.27;;;5.85;;
39890;SDS011;25564;53.312;9.790;2023-04-06T04:50:26;14.17;;;6.40;;
39890;SDS011;25564;53.312;9.790;2023-04-06T04:52:57;10.60;;;5.63;;
39890;SDS011;25564;53.312;9.790;2023-04-06T04:55:29;18.13;;;6.27;;
39890;SDS011;25564;53.312;9.790;2023-04-06T04:58:00;12.13;;;6.40;;
39890;SDS011;25564;53.312;9.790;2023-04-06T05:00:33;10.43;;;6.63;;
39890;SDS011;25564;53.312;9.790;2023-04-06T05:03:05;16.40;;;6.70;;
39890;SDS011;25564;53.312;9.790;2023-04-06T05:05:37;13.87;;;6.83;;
39890;SDS011;25564;53.312;9.790;2023-04-06T05:08:08;11.37;;;6.27;;
39890;SDS011;25564;53.312;9.790;2023-04-06T05:10:40;9.67;;;5.70;;
39890;SDS011;25564;53.312;9.790;2023-04-06T05:13:12;11.00;;;6.03;;
39890;SDS011;25564;53.312;9.790;2023-04-06T05:15:43;10.20;;;6.07;;
39890;SDS011;25564;53.312;9.790;2023-04-06T05:18:15;12.43;;;6.10;;
39890;SDS011;25564;53.312;9.790;2023-04-06T05:20:47;12.73;;;5.83;;
39890;SDS011;25564;53.312;9.790;2023-04-06T05:23:19;13.20;;;6.07;;
39890;SDS011;25564;53.312;9.790;2023-04-06T05:25:50;12.03;;;5.90;;
39890;SDS011;25564;53.312;9.790;2023-04-06T05:28:22;14.73;;;7.67;;
39890;SDS011;25564;53.312;9.790;2023-04-06T05:30:53;11.93;;;7.50;;
39890;SDS011;25564;53.312;9.790;2023-04-06T05:33:25;13.53;;;6.33;;
39890;SDS011;25564;53.312;9.790;2023-04-06T05:35:58;11.57;;;6.80;;
39890;SDS011;25564;53.312;9.790;2023-04-06T05:38:31;12.53;;;6.57;;
39890;SDS011;25564;53.312;9.790;2023-04-06T05:41:04;16.97;;;7.47;;
39890;SDS011;25564;53.312;9.790;2023-04-06T05:43:36;14.07;;;7.43;;
39890;SDS011;25564;53.312;9.790;2023-04-06T05:46:07;10.43;;;6.27;;
39890;SDS011;25564;53.312;9.790;2023-04-06T05:48:39;13.70;;;5.80;;
39890;SDS011;25564;53.312;9.790;2023-04-06T05:51:11;15.70;;;6.67;;
39890;SDS011;25564;53.312;9.790;2023-04-06T05:53:42;15.03;;;6.40;;
39890;SDS011;25564;53.312;9.790;2023-04-06T05:56:13;11.47;;;6.27;;
39890;SDS011;25564;53.312;9.790;2023-04-06T05:58:45;10.60;;;6.07;;
39890;SDS011;25564;53.312;9.790;2023-04-06T06:01:17;8.30;;;4.80;;
39890;SDS011;25564;53.312;9.790;2023-04-06T06:03:48;14.63;;;5.40;;
39890;SDS011;25564;53.312;9.790;2023-04-06T06:06:20;10.53;;;5.20;;
39890;SDS011;25564;53.312;9.790;2023-04-06T06:08:51;10.77;;;5.33;;
39890;SDS011;25564;53.312;9.790;2023-04-06T06:11:23;9.50;;;4.60;;
39890;SDS011;25564;53.312;9.790;2023-04-06T06:13:54;10.43;;;5.47;;
39890;SDS011;25564;53.312;9.790;2023-04-06T06:16:26;6.83;;;4.13;;
39890;SDS011;25564;53.312;9.790;2023-04-06T06:18:58;8.87;;;4.47;;
39890;SDS011;25564;53.312;9.790;2023-04-06T06:21:29;10.47;;;4.40;;
39890;SDS011;25564;53.312;9.790;2023-04-06T06:24:02;10.53;;;4.53;;
39890;SDS011;25564;53.312;9.790;2023-04-06T06:26:34;9.40;;;4.27;;
39890;SDS011;25564;53.312;9.790;2023-04-06T06:29:08;8.67;;;4.20;;
39890;SDS011;25564;53.312;9.790;2023-04-06T06:31:40;8.80;;;4.13;;
39890;SDS011;25564;53.312;9.790;2023-04-06T06:34:11;8.13;;;3.43;;
39890;SDS011;25564;53.312;9.790;2023-04-06T06:36:44;7.57;;;3.80;;
39890;SDS011;25564;53.312;9.790;2023-04-06T06:39:18;6.47;;;3.37;;
39890;SDS011;25564;53.312;9.790;2023-04-06T06:41:50;5.50;;;3.30;;
39890;SDS011;25564;53.312;9.790;2023-04-06T06:44:22;9.53;;;3.40;;
39890;SDS011;25564;53.312;9.790;2023-04-06T06:46:53;4.80;;;2.77;;
39890;SDS011;25564;53.312;9.790;2023-04-06T06:49:25;6.33;;;2.90;;
39890;SDS011;25564;53.312;9.790;2023-04-06T06:51:57;7.97;;;2.97;;
39890;SDS011;25564;53.312;9.790;2023-04-06T06:54:28;4.03;;;3.00;;
39890;SDS011;25564;53.312;9.790;2023-04-06T06:56:59;5.10;;;3.10;;
39890;SDS011;25564;53.312;9.790;2023-04-06T06:59:31;6.40;;;2.80;;
39890;SDS011;25564;53.312;9.790;2023-04-06T07:02:03;8.03;;;3.40;;
39890;SDS011;25564;53.312;9.790;2023-04-06T07:04:34;5.20;;;3.40;;
39890;SDS011;25564;53.312;9.790;2023-04-06T07:07:06;5.83;;;3.13;;
39890;SDS011;25564;53.312;9.790;2023-04-06T07:09:37;5.77;;;2.97;;
39890;SDS011;25564;53.312;9.790;2023-04-06T07:12:09;5.17;;;3.07;;
39890;SDS011;25564;53.312;9.790;2023-04-06T07:14:41;5.73;;;3.77;;
39890;SDS011;25564;53.312;9.790;2023-04-06T07:17:12;4.83;;;2.90;;
39890;SDS011;25564;53.312;9.790;2023-04-06T07:19:44;5.27;;;3.27;;
39890;SDS011;25564;53.312;9.790;2023-04-06T07:22:16;4.60;;;3.00;;
39890;SDS011;25564;53.312;9.790;2023-04-06T07:24:48;5.53;;;3.13;;
39890;SDS011;25564;53.312;9.790;2023-04-06T07:27:20;5.07;;;2.80;;
39890;SDS011;25564;53.312;9.790;2023-04-06T07:29:51;6.87;;;3.37;;
39890;SDS011;25564;53.312;9.790;2023-04-06T07:32:25;6.47;;;3.40;;
39890;SDS011;25564;53.312;9.790;2023-04-06T07:34:57;4.97;;;3.30;;
39890;SDS011;25564;53.312;9.790;2023-04-06T07:37:29;5.13;;;3.00;;
39890;SDS011;25564;53.312;9.790;2023-04-06T07:40:01;3.97;;;3.00;;
39890;SDS011;25564;53.312;9.790;2023-04-06T07:42:32;6.60;;;3.60;;
39890;SDS011;25564;53.312;9.790;2023-04-06T07:45:04;5.00;;;3.00;;
39890;SDS011;25564;53.312;9.790;2023-04-06T07:47:37;7.03;;;3.30;;
39890;SDS011;25564;53.312;9.790;2023-04-06T07:50:11;8.00;;;3.17;;
39890;SDS011;25564;53.312;9.790;2023-04-06T07:52:43;6.03;;;3.37;;
39890;SDS011;25564;53.312;9.790;2023-04-06T07:55:15;6.10;;;3.30;;
39890;SDS011;25564;53.312;9.790;2023-04-06T07:57:46;4.63;;;3.10;;
39890;SDS011;25564;53.312;9.790;2023-04-06T08:00:18;5.70;;;3.40;;
39890;SDS011;25564;53.312;9.790;2023-04-06T08:02:49;7.00;;;3.27;;
39890;SDS011;25564;53.312;9.790;2023-04-06T08:05:21;4.83;;;3.87;;
39890;SDS011;25564;53.312;9.790;2023-04-06T08:07:53;7.27;;;3.23;;
39890;SDS011;25564;53.312;9.790;2023-04-06T08:10:24;6.43;;;3.83;;
39890;SDS011;25564;53.312;9.790;2023-04-06T08:12:55;5.13;;;3.03;;
39890;SDS011;25564;53.312;9.790;2023-04-06T08:15:27;4.67;;;3.13;;
39890;SDS011;25564;53.312;9.790;2023-04-06T08:17:58;4.47;;;3.13;;
39890;SDS011;25564;53.312;9.790;2023-04-06T08:20:30;5.93;;;3.30;;
39890;SDS011;25564;53.312;9.790;2023-04-06T08:23:02;5.70;;;3.50;;
39890;SDS011;25564;53.312;9.790;2023-04-06T08:25:34;6.83;;;2.67;;
39890;SDS011;25564;53.312;9.790;2023-04-06T08:28:06;8.30;;;2.97;;
39890;SDS011;25564;53.312;9.790;2023-04-06T08:30:41;5.00;;;3.10;;
39890;SDS011;25564;53.312;9.790;2023-04-06T08:33:17;8.17;;;3.50;;
39890;SDS011;25564;53.312;9.790;2023-04-06T08:35:48;8.20;;;3.10;;
39890;SDS011;25564;53.312;9.790;2023-04-06T08:38:20;4.73;;;3.00;;
39890;SDS011;25564;53.312;9.790;2023-04-06T08:40:51;6.37;;;2.67;;
39890;SDS011;25564;53.312;9.790;2023-04-06T08:43:24;5.27;;;2.87;;
39890;SDS011;25564;53.312;9.790;2023-04-06T08:45:58;3.97;;;2.23;;
39890;SDS011;25564;53.312;9.790;2023-04-06T08:48:33;4.97;;;2.40;;
39890;SDS011;25564;53.312;9.790;2023-04-06T08:51:05;4.07;;;2.40;;
39890;SDS011;25564;53.312;9.790;2023-04-06T08:53:37;4.83;;;2.17;;
39890;SDS011;25564;53.312;9.790;2023-04-06T08:56:12;5.83;;;2.23;;
39890;SDS011;25564;53.312;9.790;2023-04-06T08:58:44;6.90;;;2.63;;
39890;SDS011;25564;53.312;9.790;2023-04-06T09:01:17;4.97;;;2.20;;
39890;SDS011;25564;53.312;9.790;2023-04-06T09:03:51;5.33;;;1.70;;
39890;SDS011;25564;53.312;9.790;2023-04-06T09:06:27;7.00;;;2.13;;
39890;SDS011;25564;53.312;9.790;2023-04-06T09:08:59;2.90;;;2.30;;
39890;SDS011;25564;53.312;9.790;2023-04-06T09:11:53;4.17;;;1.93;;
39890;SDS011;25564;53.312;9.790;2023-04-06T09:14:37;5.33;;;2.07;;
39890;SDS011;25564;53.312;9.790;2023-04-06T09:17:19;3.28;;;2.28;;
39890;SDS011;25564;53.312;9.790;2023-04-06T09:19:54;5.20;;;2.53;;
39890;SDS011;25564;53.312;9.790;2023-04-06T09:22:34;3.77;;;2.43;;
39890;SDS011;25564;53.312;9.790;2023-04-06T09:25:17;4.03;;;2.13;;
39890;SDS011;25564;53.312;9.790;2023-04-06T09:28:01;9.33;;;2.40;;
39890;SDS011;25564;53.312;9.790;2023-04-06T09:30:35;4.70;;;1.93;;
39890;SDS011;25564;53.312;9.790;2023-04-06T09:33:07;4.00;;;2.10;;
39890;SDS011;25564;53.312;9.790;2023-04-06T09:35:38;5.40;;;2.30;;
39890;SDS011;25564;53.312;9.790;2023-04-06T09:38:10;5.00;;;2.10;;
39890;SDS011;25564;53.312;9.790;2023-04-06T09:40:51;4.47;;;2.10;;
39890;SDS011;25564;53.312;9.790;2023-04-06T09:43:31;5.13;;;1.90;;
39890;SDS011;25564;53.312;9.790;2023-04-06T09:46:03;6.83;;;2.20;;
39890;SDS011;25564;53.312;9.790;2023-04-06T09:48:35;4.73;;;2.10;;
39890;SDS011;25564;53.312;9.790;2023-04-06T09:51:08;4.53;;;2.00;;
39890;SDS011;25564;53.312;9.790;2023-04-06T09:53:45;3.80;;;2.13;;
39890;SDS011;25564;53.312;9.790;2023-04-06T09:56:23;5.33;;;2.40;;
39890;SDS011;25564;53.312;9.790;2023-04-06T09:59:01;4.90;;;2.33;;
39890;SDS011;25564;53.312;9.790;2023-04-06T10:01:36;4.87;;;2.40;;
39890;SDS011;25564;53.312;9.790;2023-04-06T10:06:54;3.92;;;2.35;;
39890;SDS011;25564;53.312;9.790;2023-04-06T10:09:28;3.80;;;1.83;;
39890;SDS011;25564;53.312;9.790;2023-04-06T10:12:06;4.60;;;2.43;;
39890;SDS011;25564;53.312;9.790;2023-04-06T10:14:39;5.70;;;2.80;;
39890;SDS011;25564;53.312;9.790;2023-04-06T10:17:12;4.50;;;2.53;;
39890;SDS011;25564;53.312;9.790;2023-04-06T10:19:49;4.60;;;2.77;;
39890;SDS011;25564;53.312;9.790;2023-04-06T10:25:14;5.57;;;2.50;;
39890;SDS011;25564;53.312;9.790;2023-04-06T10:27:46;4.70;;;2.63;;
39890;SDS011;25564;53.312;9.790;2023-04-06T10:30:17;10.13;;;4.20;;
39890;SDS011;25564;53.312;9.790;2023-04-06T10:32:49;7.10;;;4.00;;
39890;SDS011;25564;53.312;9.790;2023-04-06T10:35:21;4.27;;;2.73;;
39890;SDS011;25564;53.312;9.790;2023-04-06T10:37:54;6.87;;;3.00;;
39890;SDS011;25564;53.312;9.790;2023-04-06T10:40:37;5.67;;;3.30;;
39890;SDS011;25564;53.312;9.790;2023-04-06T10:43:13;9.57;;;3.67;;
39890;SDS011;25564;53.312;9.790;2023-04-06T10:45:56;6.07;;;3.50;;
39890;SDS011;25564;53.312;9.790;2023-04-06T10:48:44;9.23;;;4.30;;
39890;SDS011;25564;53.312;9.790;2023-04-06T10:51:18;5.97;;;3.63;;
39890;SDS011;25564;53.312;9.790;2023-04-06T10:53:51;4.67;;;3.07;;
39890;SDS011;25564;53.312;9.790;2023-04-06T10:56:24;6.53;;;3.80;;
39890;SDS011;25564;53.312;9.790;2023-04-06T10:58:59;6.47;;;3.60;;
39890;SDS011;25564;53.312;9.790;2023-04-06T11:01:30;6.77;;;3.73;;
39890;SDS011;25564;53.312;9.790;2023-04-06T11:04:02;10.20;;;4.53;;
39890;SDS011;25564;53.312;9.790;2023-04-06T11:06:34;8.53;;;4.50;;
39890;SDS011;25564;53.312;9.790;2023-04-06T11:09:06;11.13;;;4.30;;
39890;SDS011;25564;53.312;9.790;2023-04-06T11:11:38;12.30;;;5.30;;
39890;SDS011;25564;53.312;9.790;2023-04-06T11:14:09;8.80;;;4.60;;
39890;SDS011;25564;53.312;9.790;2023-04-06T11:16:41;11.13;;;5.17;;
39890;SDS011;25564;53.312;9.790;2023-04-06T11:19:12;8.07;;;4.53;;
39890;SDS011;25564;53.312;9.790;2023-04-06T11:21:45;8.70;;;5.40;;
39890;SDS011;25564;53.312;9.790;2023-04-06T11:24:22;9.33;;;5.27;;
39890;SDS011;25564;53.312;9.790;2023-04-06T11:26:56;9.13;;;5.33;;
39890;SDS011;25564;53.312;9.790;2023-04-06T11:29:29;9.23;;;5.17;;
39890;SDS011;25564;53.312;9.790;2023-04-06T11:32:03;9.10;;;5.00;;
39890;SDS011;25564;53.312;9.790;2023-04-06T11:34:37;10.83;;;5.73;;
39890;SDS011;25564;53.312;9.790;2023-04-06T11:37:11;9.73;;;5.50;;
39890;SDS011;25564;53.312;9.790;2023-04-06T11:39:48;11.67;;;5.77;;
39890;SDS011;25564;53.312;9.790;2023-04-06T11:42:22;9.73;;;5.50;;
39890;SDS011;25564;53.312;9.790;2023-04-06T11:44:58;9.60;;;5.00;;
39890;SDS011;25564;53.312;9.790;2023-04-06T11:47:34;8.93;;;5.23;;
39890;SDS011;25564;53.312;9.790;2023-04-06T11:50:10;10.13;;;5.53;;
39890;SDS011;25564;53.312;9.790;2023-04-06T11:55:17;12.50;;;5.17;;
39890;SDS011;25564;53.312;9.790;2023-04-06T11:57:50;7.30;;;4.40;;
39890;SDS011;25564;53.312;9.790;2023-04-06T12:00:22;10.83;;;5.30;;
39890;SDS011;25564;53.312;9.790;2023-04-06T12:02:54;9.77;;;5.17;;
39890;SDS011;25564;53.312;9.790;2023-04-06T12:05:25;7.63;;;4.93;;
39890;SDS011;25564;53.312;9.790;2023-04-06T12:07:57;9.73;;;5.20;;
39890;SDS011;25564;53.312;9.790;2023-04-06T12:10:33;7.17;;;4.67;;
39890;SDS011;25564;53.312;9.790;2023-04-06T12:13:04;9.17;;;4.73;;
39890;SDS011;25564;53.312;9.790;2023-04-06T12:15:36;9.77;;;4.77;;
39890;SDS011;25564;53.312;9.790;2023-04-06T12:18:08;11.93;;;5.87;;
39890;SDS011;25564;53.312;9.790;2023-04-06T12:20:40;10.00;;;5.30;;
39890;SDS011;25564;53.312;9.790;2023-04-06T12:23:11;9.83;;;5.47;;
39890;SDS011;25564;53.312;9.790;2023-04-06T12:25:44;8.03;;;5.33;;
39890;SDS011;25564;53.312;9.790;2023-04-06T12:28:15;9.30;;;4.97;;
39890;SDS011;25564;53.312;9.790;2023-04-06T12:30:47;14.07;;;6.47;;
39890;SDS011;25564;53.312;9.790;2023-04-06T12:33:18;8.27;;;5.07;;
39890;SDS011;25564;53.312;9.790;2023-04-06T12:35:50;7.77;;;5.07;;
39890;SDS011;25564;53.312;9.790;2023-04-06T12:38:21;8.80;;;5.53;;
39890;SDS011;25564;53.312;9.790;2023-04-06T12:40:53;9.43;;;5.00;;
39890;SDS011;25564;53.312;9.790;2023-04-06T12:43:24;9.33;;;4.93;;
39890;SDS011;25564;53.312;9.790;2023-04-06T12:45:56;9.87;;;5.17;;
39890;SDS011;25564;53.312;9.790;2023-04-06T12:48:27;11.50;;;5.10;;
39890;SDS011;25564;53.312;9.790;2023-04-06T12:51:00;6.37;;;4.10;;
39890;SDS011;25564;53.312;9.790;2023-04-06T12:53:33;6.30;;;4.47;;
39890;SDS011;25564;53.312;9.790;2023-04-06T12:56:14;8.77;;;4.73;;
39890;SDS011;25564;53.312;9.790;2023-04-06T12:58:48;11.57;;;5.10;;
39890;SDS011;25564;53.312;9.790;2023-04-06T13:01:21;7.73;;;5.10;;
39890;SDS011;25564;53.312;9.790;2023-04-06T13:03:53;7.90;;;4.30;;
39890;SDS011;25564;53.312;9.790;2023-04-06T13:06:24;6.00;;;4.17;;
39890;SDS011;25564;53.312;9.790;2023-04-06T13:08:59;7.83;;;4.30;;
39890;SDS011;25564;53.312;9.790;2023-04-06T13:11:31;7.57;;;4.10;;
39890;SDS011;25564;53.312;9.790;2023-04-06T13:14:02;8.37;;;4.53;;
39890;SDS011;25564;53.312;9.790;2023-04-06T13:16:35;8.33;;;4.83;;
39890;SDS011;25564;53.312;9.790;2023-04-06T13:19:07;8.07;;;4.70;;
39890;SDS011;25564;53.312;9.790;2023-04-06T13:21:38;7.30;;;4.50;;
39890;SDS011;25564;53.312;9.790;2023-04-06T13:24:10;9.73;;;5.30;;
39890;SDS011;25564;53.312;9.790;2023-04-06T13:26:42;6.63;;;4.37;;
39890;SDS011;25564;53.312;9.790;2023-04-06T13:29:13;7.30;;;4.40;;
39890;SDS011;25564;53.312;9.790;2023-04-06T13:31:45;6.27;;;3.97;;
39890;SDS011;25564;53.312;9.790;2023-04-06T13:34:16;8.50;;;3.40;;
39890;SDS011;25564;53.312;9.790;2023-04-06T13:36:48;7.57;;;4.10;;
39890;SDS011;25564;53.312;9.790;2023-04-06T13:39:20;9.47;;;4.43;;
39890;SDS011;25564;53.312;9.790;2023-04-06T13:41:55;8.20;;;4.57;;
39890;SDS011;25564;53.312;9.790;2023-04-06T13:44:27;5.97;;;4.20;;
39890;SDS011;25564;53.312;9.790;2023-04-06T13:46:59;6.77;;;3.77;;
39890;SDS011;25564;53.312;9.790;2023-04-06T13:49:31;9.17;;;4.57;;
39890;SDS011;25564;53.312;9.790;2023-04-06T13:52:02;9.00;;;4.57;;
39890;SDS011;25564;53.312;9.790;2023-04-06T13:54:34;7.27;;;3.93;;
39890;SDS011;25564;53.312;9.790;2023-04-06T13:57:05;10.60;;;4.10;;
39890;SDS011;25564;53.312;9.790;2023-04-06T13:59:38;8.20;;;4.30;;
39890;SDS011;25564;53.312;9.790;2023-04-06T14:02:10;5.53;;;3.63;;
39890;SDS011;25564;53.312;9.790;2023-04-06T14:04:43;7.17;;;3.73;;
39890;SDS011;25564;53.312;9.790;2023-04-06T14:07:15;7.57;;;3.87;;
39890;SDS011;25564;53.312;9.790;2023-04-06T14:09:46;6.07;;;4.27;;
39890;SDS011;25564;53.312;9.790;2023-04-06T14:12:18;8.07;;;4.70;;
39890;SDS011;25564;53.312;9.790;2023-04-06T14:14:49;7.03;;;4.57;;
39890;SDS011;25564;53.312;9.790;2023-04-06T14:17:21;7.33;;;4.40;;
39890;SDS011;25564;53.312;9.790;2023-04-06T14:19:52;8.10;;;4.70;;
39890;SDS011;25564;53.312;9.790;2023-04-06T14:22:24;8.90;;;4.57;;
39890;SDS011;25564;53.312;9.790;2023-04-06T14:24:56;5.87;;;3.77;;
39890;SDS011;25564;53.312;9.790;2023-04-06T14:27:27;13.20;;;4.50;;
39890;SDS011;25564;53.312;9.790;2023-04-06T14:29:58;5.77;;;4.00;;
39890;SDS011;25564;53.312;9.790;2023-04-06T14:32:30;6.73;;;3.73;;
39890;SDS011;25564;53.312;9.790;2023-04-06T14:35:04;7.57;;;4.07;;
39890;SDS011;25564;53.312;9.790;2023-04-06T14:37:38;8.20;;;4.30;;
39890;SDS011;25564;53.312;9.790;2023-04-06T14:40:09;7.00;;;3.90;;
39890;SDS011;25564;53.312;9.790;2023-04-06T14:42:41;6.67;;;3.93;;
39890;SDS011;25564;53.312;9.790;2023-04-06T14:45:12;7.20;;;3.97;;
39890;SDS011;25564;53.312;9.790;2023-04-06T14:47:43;7.73;;;4.27;;
39890;SDS011;25564;53.312;9.790;2023-04-06T14:50:15;5.93;;;3.97;;
39890;SDS011;25564;53.312;9.790;2023-04-06T14:52:46;8.60;;;4.00;;
39890;SDS011;25564;53.312;9.790;2023-04-06T14:55:18;10.50;;;5.40;;
39890;SDS011;25564;53.312;9.790;2023-04-06T14:57:49;16.80;;;7.97;;
39890;SDS011;25564;53.312;9.790;2023-04-06T15:00:21;10.23;;;5.97;;
39890;SDS011;25564;53.312;9.790;2023-04-06T15:02:52;6.87;;;4.57;;
39890;SDS011;25564;53.312;9.790;2023-04-06T15:05:24;6.97;;;3.83;;
39890;SDS011;25564;53.312;9.790;2023-04-06T15:07:56;9.17;;;4.27;;
39890;SDS011;25564;53.312;9.790;2023-04-06T15:10:27;7.30;;;3.90;;
39890;SDS011;25564;53.312;9.790;2023-04-06T15:13:00;7.40;;;4.50;;
39890;SDS011;25564;53.312;9.790;2023-04-06T15:15:31;6.53;;;4.07;;
39890;SDS011;25564;53.312;9.790;2023-04-06T15:18:03;5.87;;;4.00;;
39890;SDS011;25564;53.312;9.790;2023-04-06T15:20:35;6.57;;;4.23;;
39890;SDS011;25564;53.312;9.790;2023-04-06T15:23:07;7.70;;;4.37;;
39890;SDS011;25564;53.312;9.790;2023-04-06T15:25:39;6.00;;;4.60;;